sensor_id;sensor_type;location;lat;lon;timestamp;P1;durP1;ratioP1;P2;durP2;ratioP2
43216;SDS011;60511;42.686;23.300;2023-02-26T00:00:23;5.30;;;4.80;;
43216;SDS011;60511;42.686;23.300;2023-02-26T00:02:23;5.55;;;4.25;;
43216;SDS011;60511;42.686;23.300;2023-02-26T00:04:24;6.20;;;5.15;;
43216;SDS011;60511;42.686;23.300;2023-02-26T00:06:24;6.13;;;4.53;;
43216;SDS011;60511;42.686;23.300;2023-02-26T00:08:25;6.65;;;4.63;;
43216;SDS011;60511;42.686;23.300;2023-02-26T00:10:26;5.82;;;4.28;;
43216;SDS011;60511;42.686;23.300;2023-02-26T00:12:26;4.97;;;4.00;;
43216;SDS011;60511;42.686;23.300;2023-02-26T00:14:28;6.38;;;4.25;;
43216;SDS011;60511;42.686;23.300;2023-02-26T00:16:29;6.00;;;4.60;;
43216;SDS011;60511;42.686;23.300;2023-02-26T00:18:30;5.35;;;4.43;;
43216;SDS011;60511;42.686;23.300;2023-02-26T00:20:31;4.82;;;4.43;;
43216;SDS011;60511;42.686;23.300;2023-02-26T00:22:32;5.43;;;4.38;;
43216;SDS011;60511;42.686;23.300;2023-02-26T00:24:33;5.03;;;4.03;;
43216;SDS011;60511;42.686;23.300;2023-02-26T00:26:34;4.40;;;4.00;;
43216;SDS011;60511;42.686;23.300;2023-02-26T00:28:34;5.70;;;4.53;;
43216;SDS011;60511;42.686;23.300;2023-02-26T00:30:35;7.38;;;4.20;;
43216;SDS011;60511;42.686;23.300;2023-02-26T00:32:37;4.90;;;3.55;;
43216;SDS011;60511;42.686;23.300;2023-02-26T00:34:38;8.02;;;5.28;;
43216;SDS011;60511;42.686;23.300;2023-02-26T00:38:39;4.85;;;3.83;;
43216;SDS011;60511;42.686;23.300;2023-02-26T00:40:44;5.53;;;4.30;;
43216;SDS011;60511;42.686;23.300;2023-02-26T00:42:47;5.43;;;4.03;;
43216;SDS011;60511;42.686;23.300;2023-02-26T00:44:48;6.82;;;4.25;;
43216;SDS011;60511;42.686;23.300;2023-02-26T00:49:09;4.32;;;3.83;;
43216;SDS011;60511;42.686;23.300;2023-02-26T00:51:23;4.30;;;3.70;;
43216;SDS011;60511;42.686;23.300;2023-02-26T00:53:58;4.43;;;3.88;;
43216;SDS011;60511;42.686;23.300;2023-02-26T00:56:12;5.30;;;3.97;;
43216;SDS011;60511;42.686;23.300;2023-02-26T00:58:13;4.75;;;3.95;;
43216;SDS011;60511;42.686;23.300;2023-02-26T01:00:13;4.85;;;4.35;;
43216;SDS011;60511;42.686;23.300;2023-02-26T01:02:14;5.15;;;4.10;;
43216;SDS011;60511;42.686;23.300;2023-02-26T01:04:16;6.80;;;4.20;;
43216;SDS011;60511;42.686;23.300;2023-02-26T01:06:18;3.78;;;3.38;;
43216;SDS011;60511;42.686;23.300;2023-02-26T01:10:30;6.65;;;4.13;;
43216;SDS011;60511;42.686;23.300;2023-02-26T01:12:32;4.97;;;3.80;;
43216;SDS011;60511;42.686;23.300;2023-02-26T01:14:32;5.25;;;3.95;;
43216;SDS011;60511;42.686;23.300;2023-02-26T01:16:37;5.03;;;3.45;;
43216;SDS011;60511;42.686;23.300;2023-02-26T01:18:55;5.72;;;3.55;;
43216;SDS011;60511;42.686;23.300;2023-02-26T01:21:03;5.97;;;4.40;;
43216;SDS011;60511;42.686;23.300;2023-02-26T01:23:14;7.13;;;4.07;;
43216;SDS011;60511;42.686;23.300;2023-02-26T01:25:20;5.32;;;3.50;;
43216;SDS011;60511;42.686;23.300;2023-02-26T01:27:23;4.60;;;3.80;;
43216;SDS011;60511;42.686;23.300;2023-02-26T01:29:24;5.70;;;3.60;;
43216;SDS011;60511;42.686;23.300;2023-02-26T01:31:29;4.95;;;3.50;;
43216;SDS011;60511;42.686;23.300;2023-02-26T01:33:50;4.30;;;3.85;;
43216;SDS011;60511;42.686;23.300;2023-02-26T01:35:57;5.32;;;4.07;;
43216;SDS011;60511;42.686;23.300;2023-02-26T01:38:10;5.80;;;3.95;;
43216;SDS011;60511;42.686;23.300;2023-02-26T01:42:35;5.13;;;3.58;;
43216;SDS011;60511;42.686;23.300;2023-02-26T01:44:54;4.40;;;3.05;;
43216;SDS011;60511;42.686;23.300;2023-02-26T01:49:14;5.28;;;3.67;;
43216;SDS011;60511;42.686;23.300;2023-02-26T01:51:17;4.65;;;3.42;;
43216;SDS011;60511;42.686;23.300;2023-02-26T01:53:38;4.78;;;3.80;;
43216;SDS011;60511;42.686;23.300;2023-02-26T01:55:38;3.33;;;3.03;;
43216;SDS011;60511;42.686;23.300;2023-02-26T01:57:43;3.75;;;3.42;;
43216;SDS011;60511;42.686;23.300;2023-02-26T01:59:44;4.18;;;3.70;;
43216;SDS011;60511;42.686;23.300;2023-02-26T02:01:48;4.07;;;3.08;;
43216;SDS011;60511;42.686;23.300;2023-02-26T02:03:53;4.35;;;3.95;;
43216;SDS011;60511;42.686;23.300;2023-02-26T02:06:01;4.55;;;3.20;;
43216;SDS011;60511;42.686;23.300;2023-02-26T02:08:05;5.32;;;3.85;;
43216;SDS011;60511;42.686;23.300;2023-02-26T02:10:05;4.53;;;3.58;;
43216;SDS011;60511;42.686;23.300;2023-02-26T02:14:17;5.47;;;3.50;;
43216;SDS011;60511;42.686;23.300;2023-02-26T02:23:44;4.43;;;4.00;;
43216;SDS011;60511;42.686;23.300;2023-02-26T02:30:37;6.35;;;3.30;;
43216;SDS011;60511;42.686;23.300;2023-02-26T02:32:57;5.75;;;3.40;;
43216;SDS011;60511;42.686;23.300;2023-02-26T02:35:03;4.90;;;3.60;;
43216;SDS011;60511;42.686;23.300;2023-02-26T02:37:20;5.75;;;3.35;;
43216;SDS011;60511;42.686;23.300;2023-02-26T02:39:28;7.47;;;3.08;;
43216;SDS011;60511;42.686;23.300;2023-02-26T02:41:54;5.90;;;3.28;;
43216;SDS011;60511;42.686;23.300;2023-02-26T02:43:59;4.82;;;3.35;;
43216;SDS011;60511;42.686;23.300;2023-02-26T02:46:04;4.75;;;3.17;;
43216;SDS011;60511;42.686;23.300;2023-02-26T02:48:41;4.47;;;3.65;;
43216;SDS011;60511;42.686;23.300;2023-02-26T02:50:47;4.18;;;3.17;;
43216;SDS011;60511;42.686;23.300;2023-02-26T02:52:58;5.45;;;3.30;;
43216;SDS011;60511;42.686;23.300;2023-02-26T02:55:12;3.55;;;2.70;;
43216;SDS011;60511;42.686;23.300;2023-02-26T02:57:37;4.00;;;3.13;;
43216;SDS011;60511;42.686;23.300;2023-02-26T02:59:44;3.33;;;3.03;;
43216;SDS011;60511;42.686;23.300;2023-02-26T03:01:47;4.97;;;3.03;;
43216;SDS011;60511;42.686;23.300;2023-02-26T03:03:56;3.47;;;3.00;;
43216;SDS011;60511;42.686;23.300;2023-02-26T03:06:01;4.35;;;3.55;;
43216;SDS011;60511;42.686;23.300;2023-02-26T03:08:04;5.13;;;3.67;;
43216;SDS011;60511;42.686;23.300;2023-02-26T03:10:08;4.80;;;3.20;;
43216;SDS011;60511;42.686;23.300;2023-02-26T03:12:09;4.78;;;3.03;;
43216;SDS011;60511;42.686;23.300;2023-02-26T03:14:09;3.90;;;3.10;;
43216;SDS011;60511;42.686;23.300;2023-02-26T03:18:49;3.97;;;3.05;;
43216;SDS011;60511;42.686;23.300;2023-02-26T03:21:03;4.43;;;2.95;;
43216;SDS011;60511;42.686;23.300;2023-02-26T03:27:52;6.18;;;3.45;;
43216;SDS011;60511;42.686;23.300;2023-02-26T03:32:22;4.93;;;3.17;;
43216;SDS011;60511;42.686;23.300;2023-02-26T03:34:29;3.95;;;3.00;;
43216;SDS011;60511;42.686;23.300;2023-02-26T03:36:39;4.88;;;3.17;;
43216;SDS011;60511;42.686;23.300;2023-02-26T03:38:47;4.07;;;2.90;;
43216;SDS011;60511;42.686;23.300;2023-02-26T03:40:54;3.53;;;3.00;;
43216;SDS011;60511;42.686;23.300;2023-02-26T03:43:04;5.45;;;3.28;;
43216;SDS011;60511;42.686;23.300;2023-02-26T03:45:11;4.70;;;3.25;;
43216;SDS011;60511;42.686;23.300;2023-02-26T03:47:14;3.45;;;2.60;;
43216;SDS011;60511;42.686;23.300;2023-02-26T03:49:18;5.70;;;3.10;;
43216;SDS011;60511;42.686;23.300;2023-02-26T03:51:23;3.85;;;2.92;;
43216;SDS011;60511;42.686;23.300;2023-02-26T03:53:27;4.72;;;2.85;;
43216;SDS011;60511;42.686;23.300;2023-02-26T03:55:36;5.65;;;3.40;;
43216;SDS011;60511;42.686;23.300;2023-02-26T03:57:40;4.60;;;2.60;;
43216;SDS011;60511;42.686;23.300;2023-02-26T03:59:41;4.60;;;3.20;;
43216;SDS011;60511;42.686;23.300;2023-02-26T04:01:50;3.80;;;2.80;;
43216;SDS011;60511;42.686;23.300;2023-02-26T04:04:32;6.22;;;3.35;;
43216;SDS011;60511;42.686;23.300;2023-02-26T04:06:42;5.97;;;2.83;;
43216;SDS011;60511;42.686;23.300;2023-02-26T04:08:43;5.00;;;3.03;;
43216;SDS011;60511;42.686;23.300;2023-02-26T04:10:46;4.28;;;2.85;;
43216;SDS011;60511;42.686;23.300;2023-02-26T04:13:05;3.15;;;2.53;;
43216;SDS011;60511;42.686;23.300;2023-02-26T04:15:06;4.38;;;2.65;;
43216;SDS011;60511;42.686;23.300;2023-02-26T04:17:07;3.75;;;2.70;;
43216;SDS011;60511;42.686;23.300;2023-02-26T04:19:07;3.97;;;3.10;;
43216;SDS011;60511;42.686;23.300;2023-02-26T04:21:12;4.40;;;2.70;;
43216;SDS011;60511;42.686;23.300;2023-02-26T04:23:14;4.95;;;3.13;;
43216;SDS011;60511;42.686;23.300;2023-02-26T04:25:14;3.80;;;2.78;;
43216;SDS011;60511;42.686;23.300;2023-02-26T04:27:14;2.97;;;2.38;;
43216;SDS011;60511;42.686;23.300;2023-02-26T04:29:15;3.22;;;2.65;;
43216;SDS011;60511;42.686;23.300;2023-02-26T04:31:15;3.13;;;2.60;;
43216;SDS011;60511;42.686;23.300;2023-02-26T04:33:16;3.28;;;2.70;;
43216;SDS011;60511;42.686;23.300;2023-02-26T04:35:16;3.88;;;2.60;;
43216;SDS011;60511;42.686;23.300;2023-02-26T04:37:16;3.33;;;2.22;;
43216;SDS011;60511;42.686;23.300;2023-02-26T04:39:17;3.75;;;2.38;;
43216;SDS011;60511;42.686;23.300;2023-02-26T04:41:17;4.60;;;2.72;;
43216;SDS011;60511;42.686;23.300;2023-02-26T04:43:18;4.25;;;2.33;;
43216;SDS011;60511;42.686;23.300;2023-02-26T04:45:18;2.65;;;2.20;;
43216;SDS011;60511;42.686;23.300;2023-02-26T04:47:19;4.43;;;2.60;;
43216;SDS011;60511;42.686;23.300;2023-02-26T04:49:19;4.82;;;2.58;;
43216;SDS011;60511;42.686;23.300;2023-02-26T04:51:20;2.60;;;2.25;;
43216;SDS011;60511;42.686;23.300;2023-02-26T04:53:20;3.25;;;2.38;;
43216;SDS011;60511;42.686;23.300;2023-02-26T04:55:20;4.72;;;2.95;;
43216;SDS011;60511;42.686;23.300;2023-02-26T04:57:21;4.10;;;2.85;;
43216;SDS011;60511;42.686;23.300;2023-02-26T04:59:21;3.78;;;3.22;;
43216;SDS011;60511;42.686;23.300;2023-02-26T05:01:22;3.47;;;2.60;;
43216;SDS011;60511;42.686;23.300;2023-02-26T05:03:22;4.43;;;2.40;;
43216;SDS011;60511;42.686;23.300;2023-02-26T05:05:22;3.90;;;2.63;;
43216;SDS011;60511;42.686;23.300;2023-02-26T05:07:23;4.90;;;2.35;;
43216;SDS011;60511;42.686;23.300;2023-02-26T05:09:23;4.25;;;2.65;;
43216;SDS011;60511;42.686;23.300;2023-02-26T05:11:24;5.07;;;2.60;;
43216;SDS011;60511;42.686;23.300;2023-02-26T05:13:24;4.85;;;2.75;;
43216;SDS011;60511;42.686;23.300;2023-02-26T05:15:25;5.05;;;2.30;;
43216;SDS011;60511;42.686;23.300;2023-02-26T05:17:26;4.63;;;2.70;;
43216;SDS011;60511;42.686;23.300;2023-02-26T05:19:26;4.05;;;2.35;;
43216;SDS011;60511;42.686;23.300;2023-02-26T05:21:27;3.00;;;2.50;;
43216;SDS011;60511;42.686;23.300;2023-02-26T05:23:27;3.75;;;2.67;;
43216;SDS011;60511;42.686;23.300;2023-02-26T05:25:27;5.07;;;2.85;;
43216;SDS011;60511;42.686;23.300;2023-02-26T05:27:28;4.18;;;2.97;;
43216;SDS011;60511;42.686;23.300;2023-02-26T05:29:28;3.42;;;2.20;;
43216;SDS011;60511;42.686;23.300;2023-02-26T05:31:29;4.38;;;2.53;;
43216;SDS011;60511;42.686;23.300;2023-02-26T05:33:29;3.72;;;2.90;;
43216;SDS011;60511;42.686;23.300;2023-02-26T05:35:29;3.60;;;1.90;;
43216;SDS011;60511;42.686;23.300;2023-02-26T05:37:30;3.38;;;2.55;;
43216;SDS011;60511;42.686;23.300;2023-02-26T05:39:30;4.15;;;2.55;;
43216;SDS011;60511;42.686;23.300;2023-02-26T05:41:31;3.13;;;2.17;;
43216;SDS011;60511;42.686;23.300;2023-02-26T05:43:31;2.92;;;2.35;;
43216;SDS011;60511;42.686;23.300;2023-02-26T05:45:32;4.22;;;2.58;;
43216;SDS011;60511;42.686;23.300;2023-02-26T05:47:33;3.97;;;2.13;;
43216;SDS011;60511;42.686;23.300;2023-02-26T05:49:34;3.03;;;2.33;;
43216;SDS011;60511;42.686;23.300;2023-02-26T05:51:34;5.38;;;2.50;;
43216;SDS011;60511;42.686;23.300;2023-02-26T05:53:34;5.32;;;2.30;;
43216;SDS011;60511;42.686;23.300;2023-02-26T05:55:35;4.72;;;2.80;;
43216;SDS011;60511;42.686;23.300;2023-02-26T05:57:35;3.58;;;2.83;;
43216;SDS011;60511;42.686;23.300;2023-02-26T05:59:36;3.53;;;2.53;;
43216;SDS011;60511;42.686;23.300;2023-02-26T06:01:38;3.28;;;2.58;;
43216;SDS011;60511;42.686;23.300;2023-02-26T06:03:38;3.15;;;2.00;;
43216;SDS011;60511;42.686;23.300;2023-02-26T06:05:43;3.38;;;2.63;;
43216;SDS011;60511;42.686;23.300;2023-02-26T06:07:43;6.57;;;2.78;;
43216;SDS011;60511;42.686;23.300;2023-02-26T06:09:44;4.22;;;2.08;;
43216;SDS011;60511;42.686;23.300;2023-02-26T06:11:44;4.63;;;2.25;;
43216;SDS011;60511;42.686;23.300;2023-02-26T06:13:44;6.07;;;2.67;;
43216;SDS011;60511;42.686;23.300;2023-02-26T06:15:46;5.22;;;2.65;;
43216;SDS011;60511;42.686;23.300;2023-02-26T06:17:48;3.50;;;2.15;;
43216;SDS011;60511;42.686;23.300;2023-02-26T06:19:49;4.15;;;2.42;;
43216;SDS011;60511;42.686;23.300;2023-02-26T06:21:49;2.53;;;2.03;;
43216;SDS011;60511;42.686;23.300;2023-02-26T06:23:49;3.83;;;3.03;;
43216;SDS011;60511;42.686;23.300;2023-02-26T06:25:50;4.55;;;2.67;;
43216;SDS011;60511;42.686;23.300;2023-02-26T06:27:51;3.95;;;2.42;;
43216;SDS011;60511;42.686;23.300;2023-02-26T06:29:52;4.95;;;2.22;;
43216;SDS011;60511;42.686;23.300;2023-02-26T06:31:52;6.13;;;2.55;;
43216;SDS011;60511;42.686;23.300;2023-02-26T06:33:52;5.25;;;2.60;;
43216;SDS011;60511;42.686;23.300;2023-02-26T06:35:53;5.05;;;2.08;;
43216;SDS011;60511;42.686;23.300;2023-02-26T06:37:55;5.30;;;2.20;;
43216;SDS011;60511;42.686;23.300;2023-02-26T06:39:56;3.60;;;2.60;;
43216;SDS011;60511;42.686;23.300;2023-02-26T06:41:56;4.30;;;2.08;;
43216;SDS011;60511;42.686;23.300;2023-02-26T06:43:57;4.65;;;2.60;;
43216;SDS011;60511;42.686;23.300;2023-02-26T06:45:58;6.40;;;2.75;;
43216;SDS011;60511;42.686;23.300;2023-02-26T06:47:59;7.80;;;2.72;;
43216;SDS011;60511;42.686;23.300;2023-02-26T06:49:59;4.55;;;2.63;;
43216;SDS011;60511;42.686;23.300;2023-02-26T06:52:01;3.70;;;2.17;;
43216;SDS011;60511;42.686;23.300;2023-02-26T06:54:02;4.47;;;2.47;;
43216;SDS011;60511;42.686;23.300;2023-02-26T06:56:03;6.05;;;2.75;;
43216;SDS011;60511;42.686;23.300;2023-02-26T06:58:04;7.20;;;3.03;;
43216;SDS011;60511;42.686;23.300;2023-02-26T07:00:05;3.83;;;2.00;;
43216;SDS011;60511;42.686;23.300;2023-02-26T07:02:06;6.03;;;2.28;;
43216;SDS011;60511;42.686;23.300;2023-02-26T07:04:06;4.00;;;2.33;;
43216;SDS011;60511;42.686;23.300;2023-02-26T07:06:08;4.55;;;2.60;;
43216;SDS011;60511;42.686;23.300;2023-02-26T07:08:09;6.78;;;2.75;;
43216;SDS011;60511;42.686;23.300;2023-02-26T07:10:11;3.15;;;2.30;;
43216;SDS011;60511;42.686;23.300;2023-02-26T07:12:12;5.18;;;2.67;;
43216;SDS011;60511;42.686;23.300;2023-02-26T07:14:12;4.50;;;2.20;;
43216;SDS011;60511;42.686;23.300;2023-02-26T07:16:13;6.72;;;2.42;;
43216;SDS011;60511;42.686;23.300;2023-02-26T07:18:13;5.63;;;2.53;;
43216;SDS011;60511;42.686;23.300;2023-02-26T07:20:13;4.93;;;2.15;;
43216;SDS011;60511;42.686;23.300;2023-02-26T07:22:14;6.85;;;3.33;;
43216;SDS011;60511;42.686;23.300;2023-02-26T07:24:15;4.47;;;2.25;;
43216;SDS011;60511;42.686;23.300;2023-02-26T07:26:16;4.20;;;2.20;;
43216;SDS011;60511;42.686;23.300;2023-02-26T07:28:16;5.38;;;2.13;;
43216;SDS011;60511;42.686;23.300;2023-02-26T07:30:17;5.00;;;3.00;;
43216;SDS011;60511;42.686;23.300;2023-02-26T07:32:18;6.97;;;2.33;;
43216;SDS011;60511;42.686;23.300;2023-02-26T07:34:18;6.90;;;2.10;;
43216;SDS011;60511;42.686;23.300;2023-02-26T07:36:19;4.15;;;2.13;;
43216;SDS011;60511;42.686;23.300;2023-02-26T07:38:19;4.85;;;2.50;;
43216;SDS011;60511;42.686;23.300;2023-02-26T07:40:20;3.45;;;2.08;;
43216;SDS011;60511;42.686;23.300;2023-02-26T07:42:20;3.63;;;2.22;;
43216;SDS011;60511;42.686;23.300;2023-02-26T07:44:21;3.15;;;2.60;;
43216;SDS011;60511;42.686;23.300;2023-02-26T07:46:21;3.65;;;1.90;;
43216;SDS011;60511;42.686;23.300;2023-02-26T07:48:21;4.00;;;2.20;;
43216;SDS011;60511;42.686;23.300;2023-02-26T07:50:22;4.15;;;2.28;;
43216;SDS011;60511;42.686;23.300;2023-02-26T07:52:24;3.55;;;2.60;;
43216;SDS011;60511;42.686;23.300;2023-02-26T07:54:24;4.40;;;2.58;;
43216;SDS011;60511;42.686;23.300;2023-02-26T07:56:25;4.93;;;2.20;;
43216;SDS011;60511;42.686;23.300;2023-02-26T07:58:25;4.97;;;2.13;;
43216;SDS011;60511;42.686;23.300;2023-02-26T08:00:25;6.43;;;2.03;;
43216;SDS011;60511;42.686;23.300;2023-02-26T08:02:26;5.63;;;2.55;;
43216;SDS011;60511;42.686;23.300;2023-02-26T08:04:26;3.15;;;2.13;;
43216;SDS011;60511;42.686;23.300;2023-02-26T08:06:27;5.38;;;2.40;;
43216;SDS011;60511;42.686;23.300;2023-02-26T08:08:27;5.30;;;2.15;;
43216;SDS011;60511;42.686;23.300;2023-02-26T08:10:28;2.80;;;1.73;;
43216;SDS011;60511;42.686;23.300;2023-02-26T08:12:29;4.90;;;2.50;;
43216;SDS011;60511;42.686;23.300;2023-02-26T08:14:30;4.30;;;2.17;;
43216;SDS011;60511;42.686;23.300;2023-02-26T08:16:30;5.07;;;2.50;;
43216;SDS011;60511;42.686;23.300;2023-02-26T08:18:30;4.80;;;2.97;;
43216;SDS011;60511;42.686;23.300;2023-02-26T08:20:31;3.65;;;2.42;;
43216;SDS011;60511;42.686;23.300;2023-02-26T08:22:32;6.20;;;2.70;;
43216;SDS011;60511;42.686;23.300;2023-02-26T08:24:33;3.50;;;2.42;;
43216;SDS011;60511;42.686;23.300;2023-02-26T08:26:34;3.35;;;2.58;;
43216;SDS011;60511;42.686;23.300;2023-02-26T08:28:35;5.70;;;2.55;;
43216;SDS011;60511;42.686;23.300;2023-02-26T08:30:36;4.85;;;2.63;;
43216;SDS011;60511;42.686;23.300;2023-02-26T08:32:36;3.92;;;2.58;;
43216;SDS011;60511;42.686;23.300;2023-02-26T08:34:38;3.55;;;2.47;;
43216;SDS011;60511;42.686;23.300;2023-02-26T08:36:39;4.38;;;2.55;;
43216;SDS011;60511;42.686;23.300;2023-02-26T08:38:39;5.00;;;3.13;;
43216;SDS011;60511;42.686;23.300;2023-02-26T08:40:40;4.13;;;2.75;;
43216;SDS011;60511;42.686;23.300;2023-02-26T08:42:40;6.57;;;3.45;;
43216;SDS011;60511;42.686;23.300;2023-02-26T08:44:41;4.90;;;2.80;;
43216;SDS011;60511;42.686;23.300;2023-02-26T08:46:42;4.70;;;3.00;;
43216;SDS011;60511;42.686;23.300;2023-02-26T08:48:42;5.28;;;3.20;;
43216;SDS011;60511;42.686;23.300;2023-02-26T08:50:43;5.25;;;2.88;;
43216;SDS011;60511;42.686;23.300;2023-02-26T08:52:43;4.70;;;2.58;;
43216;SDS011;60511;42.686;23.300;2023-02-26T08:54:44;5.63;;;3.47;;
43216;SDS011;60511;42.686;23.300;2023-02-26T08:56:44;4.35;;;2.85;;
43216;SDS011;60511;42.686;23.300;2023-02-26T08:58:44;7.50;;;3.40;;
43216;SDS011;60511;42.686;23.300;2023-02-26T09:00:45;5.03;;;3.25;;
43216;SDS011;60511;42.686;23.300;2023-02-26T09:02:46;4.47;;;2.83;;
43216;SDS011;60511;42.686;23.300;2023-02-26T09:04:46;6.70;;;3.38;;
43216;SDS011;60511;42.686;23.300;2023-02-26T09:06:47;5.82;;;3.30;;
43216;SDS011;60511;42.686;23.300;2023-02-26T09:08:47;5.07;;;2.95;;
43216;SDS011;60511;42.686;23.300;2023-02-26T09:10:48;5.78;;;3.88;;
43216;SDS011;60511;42.686;23.300;2023-02-26T09:12:48;8.63;;;3.85;;
43216;SDS011;60511;42.686;23.300;2023-02-26T09:14:49;8.85;;;3.80;;
43216;SDS011;60511;42.686;23.300;2023-02-26T09:16:49;6.40;;;3.90;;
43216;SDS011;60511;42.686;23.300;2023-02-26T09:18:50;5.53;;;3.78;;
43216;SDS011;60511;42.686;23.300;2023-02-26T09:20:50;5.95;;;3.90;;
43216;SDS011;60511;42.686;23.300;2023-02-26T09:22:51;5.95;;;3.90;;
43216;SDS011;60511;42.686;23.300;2023-02-26T09:24:51;8.15;;;4.05;;
43216;SDS011;60511;42.686;23.300;2023-02-26T09:26:52;8.40;;;4.10;;
43216;SDS011;60511;42.686;23.300;2023-02-26T09:28:52;4.25;;;3.25;;
43216;SDS011;60511;42.686;23.300;2023-02-26T09:30:53;5.20;;;3.72;;
43216;SDS011;60511;42.686;23.300;2023-02-26T09:32:54;7.20;;;3.80;;
43216;SDS011;60511;42.686;23.300;2023-02-26T09:34:54;5.80;;;4.05;;
43216;SDS011;60511;42.686;23.300;2023-02-26T09:36:54;6.93;;;4.45;;
43216;SDS011;60511;42.686;23.300;2023-02-26T09:38:55;6.15;;;4.05;;
43216;SDS011;60511;42.686;23.300;2023-02-26T09:40:57;4.97;;;3.72;;
43216;SDS011;60511;42.686;23.300;2023-02-26T09:45:06;6.50;;;3.78;;
43216;SDS011;60511;42.686;23.300;2023-02-26T09:47:20;7.15;;;4.20;;
43216;SDS011;60511;42.686;23.300;2023-02-26T09:49:32;6.30;;;4.00;;
43216;SDS011;60511;42.686;23.300;2023-02-26T09:52:00;5.13;;;3.95;;
43216;SDS011;60511;42.686;23.300;2023-02-26T09:54:15;8.45;;;4.10;;
43216;SDS011;60511;42.686;23.300;2023-02-26T09:56:21;5.90;;;3.70;;
43216;SDS011;60511;42.686;23.300;2023-02-26T09:58:32;5.30;;;3.40;;
43216;SDS011;60511;42.686;23.300;2023-02-26T10:03:11;7.97;;;3.83;;
43216;SDS011;60511;42.686;23.300;2023-02-26T10:05:18;5.85;;;3.40;;
43216;SDS011;60511;42.686;23.300;2023-02-26T10:07:34;6.40;;;3.70;;
43216;SDS011;60511;42.686;23.300;2023-02-26T10:09:50;8.25;;;4.40;;
43216;SDS011;60511;42.686;23.300;2023-02-26T10:12:08;8.48;;;3.80;;
43216;SDS011;60511;42.686;23.300;2023-02-26T10:14:17;6.03;;;3.55;;
43216;SDS011;60511;42.686;23.300;2023-02-26T10:16:24;6.85;;;3.78;;
43216;SDS011;60511;42.686;23.300;2023-02-26T10:18:28;6.88;;;3.70;;
43216;SDS011;60511;42.686;23.300;2023-02-26T10:20:36;5.28;;;3.40;;
43216;SDS011;60511;42.686;23.300;2023-02-26T10:23:15;5.20;;;4.25;;
43216;SDS011;60511;42.686;23.300;2023-02-26T10:25:22;5.32;;;3.80;;
43216;SDS011;60511;42.686;23.300;2023-02-26T10:27:43;5.97;;;3.55;;
43216;SDS011;60511;42.686;23.300;2023-02-26T10:30:21;5.50;;;3.38;;
43216;SDS011;60511;42.686;23.300;2023-02-26T10:32:32;5.40;;;3.55;;
43216;SDS011;60511;42.686;23.300;2023-02-26T10:36:59;6.25;;;3.55;;
43216;SDS011;60511;42.686;23.300;2023-02-26T10:39:22;4.05;;;3.20;;
43216;SDS011;60511;42.686;23.300;2023-02-26T10:41:34;4.22;;;3.40;;
43216;SDS011;60511;42.686;23.300;2023-02-26T10:43:38;5.88;;;3.80;;
43216;SDS011;60511;42.686;23.300;2023-02-26T10:50:15;5.85;;;3.83;;
43216;SDS011;60511;42.686;23.300;2023-02-26T10:52:20;4.07;;;3.42;;
43216;SDS011;60511;42.686;23.300;2023-02-26T10:56:32;6.70;;;4.45;;
43216;SDS011;60511;42.686;23.300;2023-02-26T10:58:33;4.90;;;4.07;;
43216;SDS011;60511;42.686;23.300;2023-02-26T11:00:34;3.95;;;3.30;;
43216;SDS011;60511;42.686;23.300;2023-02-26T11:02:39;5.47;;;3.78;;
43216;SDS011;60511;42.686;23.300;2023-02-26T11:04:41;6.45;;;3.45;;
43216;SDS011;60511;42.686;23.300;2023-02-26T11:06:52;7.38;;;3.55;;
43216;SDS011;60511;42.686;23.300;2023-02-26T11:08:56;5.45;;;3.80;;
43216;SDS011;60511;42.686;23.300;2023-02-26T11:10:59;7.13;;;4.03;;
43216;SDS011;60511;42.686;23.300;2023-02-26T11:15:03;5.80;;;3.40;;
43216;SDS011;60511;42.686;23.300;2023-02-26T11:17:11;6.05;;;3.92;;
43216;SDS011;60511;42.686;23.300;2023-02-26T11:19:19;6.20;;;3.75;;
43216;SDS011;60511;42.686;23.300;2023-02-26T11:21:47;5.60;;;3.95;;
43216;SDS011;60511;42.686;23.300;2023-02-26T11:23:57;7.82;;;4.07;;
43216;SDS011;60511;42.686;23.300;2023-02-26T11:26:07;6.53;;;4.00;;
43216;SDS011;60511;42.686;23.300;2023-02-26T11:30:53;6.57;;;4.15;;
43216;SDS011;60511;42.686;23.300;2023-02-26T11:32:56;6.00;;;3.28;;
43216;SDS011;60511;42.686;23.300;2023-02-26T11:34:57;10.23;;;4.10;;
43216;SDS011;60511;42.686;23.300;2023-02-26T11:36:59;6.15;;;3.30;;
43216;SDS011;60511;42.686;23.300;2023-02-26T11:39:01;6.22;;;4.57;;
43216;SDS011;60511;42.686;23.300;2023-02-26T11:41:06;6.03;;;3.97;;
43216;SDS011;60511;42.686;23.300;2023-02-26T11:43:07;9.80;;;3.95;;
43216;SDS011;60511;42.686;23.300;2023-02-26T11:45:15;9.52;;;3.72;;
43216;SDS011;60511;42.686;23.300;2023-02-26T11:47:23;7.90;;;3.78;;
43216;SDS011;60511;42.686;23.300;2023-02-26T11:49:28;6.82;;;3.65;;
43216;SDS011;60511;42.686;23.300;2023-02-26T11:51:28;8.10;;;3.90;;
43216;SDS011;60511;42.686;23.300;2023-02-26T11:53:36;9.43;;;3.90;;
43216;SDS011;60511;42.686;23.300;2023-02-26T11:55:44;6.72;;;3.67;;
43216;SDS011;60511;42.686;23.300;2023-02-26T11:57:50;6.53;;;3.42;;
43216;SDS011;60511;42.686;23.300;2023-02-26T11:59:53;7.30;;;3.60;;
43216;SDS011;60511;42.686;23.300;2023-02-26T12:01:57;8.43;;;3.83;;
43216;SDS011;60511;42.686;23.300;2023-02-26T12:04:02;8.93;;;3.97;;
43216;SDS011;60511;42.686;23.300;2023-02-26T12:06:02;6.15;;;3.72;;
43216;SDS011;60511;42.686;23.300;2023-02-26T12:08:05;3.78;;;2.88;;
43216;SDS011;60511;42.686;23.300;2023-02-26T12:10:24;11.20;;;4.10;;
43216;SDS011;60511;42.686;23.300;2023-02-26T12:15:05;7.43;;;3.20;;
43216;SDS011;60511;42.686;23.300;2023-02-26T12:17:23;8.30;;;3.90;;
43216;SDS011;60511;42.686;23.300;2023-02-26T12:26:09;8.40;;;3.88;;
43216;SDS011;60511;42.686;23.300;2023-02-26T12:28:34;7.18;;;3.60;;
43216;SDS011;60511;42.686;23.300;2023-02-26T12:35:36;6.82;;;3.33;;
43216;SDS011;60511;42.686;23.300;2023-02-26T12:40:31;4.63;;;3.58;;
43216;SDS011;60511;42.686;23.300;2023-02-26T13:01:44;6.93;;;4.05;;
43216;SDS011;60511;42.686;23.300;2023-02-26T13:08:59;5.15;;;3.25;;
43216;SDS011;60511;42.686;23.300;2023-02-26T13:13:59;4.72;;;3.25;;
43216;SDS011;60511;42.686;23.300;2023-02-26T13:16:13;5.25;;;3.03;;
43216;SDS011;60511;42.686;23.300;2023-02-26T13:18:30;6.68;;;3.67;;
43216;SDS011;60511;42.686;23.300;2023-02-26T13:20:44;4.70;;;3.20;;
43216;SDS011;60511;42.686;23.300;2023-02-26T13:22:56;4.55;;;2.65;;
43216;SDS011;60511;42.686;23.300;2023-02-26T13:25:02;5.25;;;3.47;;
43216;SDS011;60511;42.686;23.300;2023-02-26T13:27:05;5.95;;;2.78;;
43216;SDS011;60511;42.686;23.300;2023-02-26T13:29:19;6.45;;;3.40;;
43216;SDS011;60511;42.686;23.300;2023-02-26T13:31:34;4.57;;;2.75;;
43216;SDS011;60511;42.686;23.300;2023-02-26T13:33:42;4.93;;;3.50;;
43216;SDS011;60511;42.686;23.300;2023-02-26T13:35:44;4.40;;;3.28;;
43216;SDS011;60511;42.686;23.300;2023-02-26T13:37:49;4.43;;;3.22;;
43216;SDS011;60511;42.686;23.300;2023-02-26T13:40:00;4.97;;;3.33;;
43216;SDS011;60511;42.686;23.300;2023-02-26T13:42:28;6.97;;;3.33;;
43216;SDS011;60511;42.686;23.300;2023-02-26T13:44:45;3.95;;;2.28;;
43216;SDS011;60511;42.686;23.300;2023-02-26T13:51:51;5.90;;;3.20;;
43216;SDS011;60511;42.686;23.300;2023-02-26T13:53:57;7.10;;;3.35;;
43216;SDS011;60511;42.686;23.300;2023-02-26T13:56:06;5.43;;;2.75;;
43216;SDS011;60511;42.686;23.300;2023-02-26T14:00:34;4.13;;;3.38;;
43216;SDS011;60511;42.686;23.300;2023-02-26T14:02:40;3.80;;;2.58;;